createdAt,value
2022-09-15T00:01:32.397Z,27.50
2022-09-15T00:03:38.891Z,27.50
2022-09-15T00:05:43.839Z,27.50
2022-09-15T00:07:48.572Z,27.60
2022-09-15T00:09:53.148Z,27.60
2022-09-15T00:11:58.165Z,27.60
2022-09-15T00:14:11.691Z,27.60
2022-09-15T00:16:19.953Z,27.70
2022-09-15T00:18:25.360Z,27.60
2022-09-15T00:20:30.070Z,27.70
2022-09-15T00:22:36.683Z,27.70
2022-09-15T00:24:43.074Z,27.70
2022-09-15T00:26:48.765Z,27.80
2022-09-15T00:28:55.623Z,27.80
2022-09-15T00:31:01.208Z,27.90
2022-09-15T00:33:08.031Z,28.00
2022-09-15T00:35:14.651Z,28.00
2022-09-15T00:37:19.795Z,28.00
2022-09-15T00:39:25.802Z,28.00
2022-09-15T00:41:32.210Z,28.00
2022-09-15T00:44:08.088Z,28.10
2022-09-15T00:46:15.155Z,28.20
2022-09-15T00:48:22.072Z,28.20
2022-09-15T00:50:27.211Z,28.30
2022-09-15T00:52:43.409Z,28.40
2022-09-15T00:54:51.176Z,28.40
2022-09-15T00:57:03.445Z,28.30
2022-09-15T00:59:13.361Z,28.20
2022-09-15T01:03:45.975Z,28.40
2022-09-15T01:05:55.736Z,28.60
2022-09-15T01:08:10.262Z,28.60
2022-09-15T01:10:24.755Z,28.60
2022-09-15T01:12:31.380Z,28.70
2022-09-15T01:14:38.032Z,28.80
2022-09-15T01:19:55.480Z,28.80
2022-09-15T01:22:20.663Z,28.90
2022-09-15T01:25:02.341Z,29.00
2022-09-15T01:27:42.615Z,29.10
2022-09-15T01:30:17.101Z,29.00
2022-09-15T01:32:39.829Z,29.00
2022-09-15T01:34:50.485Z,28.80
2022-09-15T01:37:01.987Z,28.70
2022-09-15T01:39:21.134Z,28.80
2022-09-15T01:41:53.070Z,28.90
2022-09-15T01:44:12.564Z,29.10
2022-09-15T01:46:21.445Z,29.30
2022-09-15T01:48:26.836Z,29.40
2022-09-15T01:50:38.388Z,29.40
2022-09-15T01:52:46.403Z,29.40
2022-09-15T01:54:54.925Z,29.40
2022-09-15T01:57:01.729Z,29.50
2022-09-15T01:59:08.345Z,29.60
2022-09-15T02:01:32.702Z,29.60
2022-09-15T02:03:55.021Z,29.60
2022-09-15T02:06:04.237Z,29.60
2022-09-15T02:08:34.907Z,29.60
2022-09-15T02:10:49.160Z,29.70
2022-09-15T02:13:18.941Z,29.80
2022-09-15T02:15:30.132Z,29.60
2022-09-15T02:17:41.322Z,29.70
2022-09-15T02:19:50.891Z,29.60
2022-09-15T02:22:17.105Z,29.60
2022-09-15T02:24:28.153Z,29.50
2022-09-15T02:26:35.549Z,29.50
2022-09-15T02:28:40.643Z,29.60
2022-09-15T02:30:48.008Z,29.70
2022-09-15T02:33:01.031Z,29.70
2022-09-15T02:35:07.902Z,29.70
2022-09-15T02:37:15.100Z,29.80
2022-09-15T02:39:21.726Z,29.60
2022-09-15T02:41:26.055Z,29.50
2022-09-15T02:43:31.743Z,29.60
2022-09-15T02:45:37.103Z,29.70
2022-09-15T02:47:43.475Z,29.90
2022-09-15T02:49:48.798Z,29.90
2022-09-15T02:51:53.921Z,29.90
2022-09-15T02:53:58.603Z,30.00
2022-09-15T02:56:06.042Z,30.10
2022-09-15T02:58:13.151Z,30.10
2022-09-15T03:00:21.021Z,30.20
2022-09-15T03:02:28.415Z,30.30
2022-09-15T03:04:34.950Z,30.30
2022-09-15T03:06:39.544Z,30.40
2022-09-15T03:08:57.464Z,30.60
2022-09-15T03:11:16.532Z,30.40
2022-09-15T03:13:21.651Z,30.20
2022-09-15T03:15:26.571Z,30.20
2022-09-15T03:17:30.954Z,30.10
2022-09-15T03:19:35.420Z,30.20
2022-09-15T03:21:39.524Z,30.20
2022-09-15T03:23:46.706Z,30.10
2022-09-15T03:25:50.703Z,30.20
2022-09-15T03:27:55.217Z,30.30
2022-09-15T03:29:59.860Z,30.30
2022-09-15T03:32:04.633Z,30.30
2022-09-15T03:34:10.864Z,30.30
2022-09-15T03:36:17.611Z,30.30
2022-09-15T03:38:21.951Z,30.40
2022-09-15T03:40:28.465Z,30.70
2022-09-15T03:42:34.910Z,30.80
2022-09-15T03:44:39.483Z,30.70
2022-09-15T03:46:44.785Z,30.90
2022-09-15T03:48:53.235Z,30.80
2022-09-15T03:50:57.711Z,31.00
2022-09-15T03:53:02.771Z,31.10
2022-09-15T03:55:07.893Z,31.20
2022-09-15T03:57:12.352Z,31.30
2022-09-15T03:59:19.075Z,31.30
2022-09-15T04:01:25.753Z,31.40
2022-09-15T04:03:36.513Z,31.20
2022-09-15T04:05:45.593Z,31.30
2022-09-15T04:07:51.210Z,31.30
2022-09-15T04:09:56.165Z,31.20
2022-09-15T04:12:06.117Z,31.20
2022-09-15T04:14:13.172Z,31.20
2022-09-15T04:16:21.955Z,31.20
2022-09-15T04:18:28.561Z,31.20
2022-09-15T04:20:35.076Z,31.20
2022-09-15T04:22:39.845Z,31.30
2022-09-15T04:24:51.238Z,31.30
2022-09-15T04:27:02.083Z,31.30
2022-09-15T04:29:11.632Z,31.40
2022-09-15T04:31:20.857Z,31.50
2022-09-15T04:33:27.252Z,31.70
2022-09-15T04:35:31.871Z,31.80
2022-09-15T04:37:38.403Z,31.90
2022-09-15T04:39:45.440Z,31.90
2022-09-15T04:41:52.392Z,32.00
2022-09-15T04:43:58.974Z,32.10
2022-09-15T04:46:03.768Z,32.10
2022-09-15T04:48:10.142Z,32.10
2022-09-15T04:50:16.974Z,32.00
2022-09-15T04:52:23.095Z,31.90
2022-09-15T04:54:28.130Z,31.90
2022-09-15T04:56:34.526Z,31.80
2022-09-15T04:58:42.606Z,31.80
2022-09-15T05:00:47.653Z,32.00
2022-09-15T05:02:54.072Z,32.00
2022-09-15T05:05:00.523Z,32.10
2022-09-15T05:07:05.699Z,32.20
2022-09-15T05:09:15.975Z,32.20
2022-09-15T05:11:25.496Z,32.10
2022-09-15T05:13:32.420Z,32.10
2022-09-15T05:15:40.927Z,32.10
2022-09-15T05:17:47.497Z,32.10
2022-09-15T05:19:52.130Z,32.00
2022-09-15T05:21:58.667Z,32.00
2022-09-15T05:24:05.897Z,32.00
2022-09-15T05:26:13.746Z,32.00
2022-09-15T05:28:21.221Z,32.00
2022-09-15T05:30:44.400Z,32.10
2022-09-15T05:32:49.883Z,32.10
2022-09-15T05:34:56.390Z,32.40
2022-09-15T05:37:03.140Z,32.50
2022-09-15T05:39:07.554Z,32.70
2022-09-15T05:41:22.068Z,32.80
2022-09-15T05:43:28.924Z,32.90
2022-09-15T05:45:33.408Z,32.90
2022-09-15T05:47:39.822Z,33.00
2022-09-15T05:49:46.074Z,33.10
2022-09-15T05:51:52.425Z,33.10
2022-09-15T05:54:01.415Z,33.20
2022-09-15T05:56:09.100Z,33.10
2022-09-15T05:58:13.464Z,33.10
2022-09-15T06:00:22.134Z,32.90
2022-09-15T06:02:28.929Z,32.70
2022-09-15T06:04:35.072Z,32.70
2022-09-15T06:06:39.498Z,32.70
2022-09-15T06:08:57.440Z,32.60
2022-09-15T06:11:04.722Z,32.50
2022-09-15T06:13:11.720Z,32.40
2022-09-15T06:15:17.852Z,32.40
2022-09-15T06:17:24.052Z,32.20
2022-09-15T06:19:32.567Z,32.10
2022-09-15T06:21:58.542Z,32.00
2022-09-15T06:24:04.715Z,31.90
2022-09-15T06:26:19.999Z,31.70
2022-09-15T06:28:27.368Z,31.50
2022-09-15T06:30:32.306Z,31.40
2022-09-15T06:32:39.501Z,31.30
2022-09-15T06:34:44.229Z,31.10
2022-09-15T06:36:48.919Z,31.00
2022-09-15T06:38:55.375Z,30.80
2022-09-15T06:41:01.587Z,30.60
2022-09-15T06:43:06.572Z,30.30
2022-09-15T06:45:15.328Z,30.30
2022-09-15T06:47:21.458Z,30.10
2022-09-15T06:49:26.652Z,29.40
2022-09-15T06:51:39.045Z,28.90
2022-09-15T06:53:47.131Z,28.90
2022-09-15T06:55:52.074Z,29.20
2022-09-15T06:57:59.482Z,29.30
2022-09-15T07:00:06.922Z,29.20
2022-09-15T07:02:12.289Z,29.30
2022-09-15T07:04:19.039Z,29.10
2022-09-15T07:06:30.764Z,28.50
2022-09-15T07:08:35.089Z,28.40
2022-09-15T07:10:41.416Z,28.60
2022-09-15T07:12:47.686Z,28.70
2022-09-15T07:14:52.219Z,28.70
2022-09-15T07:16:58.480Z,28.90
2022-09-15T07:19:06.694Z,29.10
2022-09-15T07:21:13.558Z,29.10
2022-09-15T07:23:21.495Z,29.10
2022-09-15T07:25:36.732Z,29.10
2022-09-15T07:27:41.769Z,29.20
2022-09-15T07:29:48.304Z,29.20
2022-09-15T07:31:55.184Z,29.20
2022-09-15T07:34:01.967Z,29.20
2022-09-15T07:36:08.853Z,29.20
2022-09-15T07:38:15.119Z,29.20
2022-09-15T07:40:20.519Z,29.30
2022-09-15T07:42:27.140Z,29.20
2022-09-15T07:44:31.620Z,29.30
2022-09-15T07:46:36.215Z,29.40
2022-09-15T07:48:41.025Z,29.40
2022-09-15T07:50:48.564Z,29.30
2022-09-15T07:52:56.210Z,28.90
2022-09-15T07:55:00.945Z,28.50
2022-09-15T07:57:07.512Z,28.00
2022-09-15T07:59:12.274Z,28.10
2022-09-15T08:01:18.841Z,28.40
2022-09-15T08:03:23.566Z,28.30
2022-09-15T08:05:29.295Z,28.50
2022-09-15T08:07:36.165Z,28.60
2022-09-15T08:09:42.862Z,28.60
2022-09-15T08:11:47.222Z,28.60
2022-09-15T08:13:54.210Z,28.50
2022-09-15T08:16:13.525Z,28.20
2022-09-15T08:18:18.093Z,28.20
2022-09-15T08:20:24.998Z,28.40
2022-09-15T08:22:32.707Z,28.50
2022-09-15T08:24:38.403Z,28.70
2022-09-15T08:26:45.243Z,28.60
2022-09-15T08:28:54.588Z,28.70
2022-09-15T08:31:03.306Z,28.90
2022-09-15T08:33:08.366Z,29.00
2022-09-15T08:35:12.860Z,29.10
2022-09-15T08:37:19.114Z,29.00
2022-09-15T08:39:25.725Z,29.00
2022-09-15T08:41:45.260Z,29.10
2022-09-15T08:44:21.454Z,29.10
2022-09-15T08:46:30.296Z,29.00
2022-09-15T08:48:41.032Z,28.90
2022-09-15T08:50:50.543Z,29.00
2022-09-15T08:53:04.022Z,29.00
2022-09-15T08:55:40.642Z,28.80
2022-09-15T08:57:47.595Z,28.90
2022-09-15T08:59:54.161Z,29.00
2022-09-15T09:02:26.728Z,29.20
2022-09-15T09:05:15.615Z,29.30
2022-09-15T09:07:44.558Z,29.40
2022-09-15T09:10:12.506Z,29.40
2022-09-15T09:12:51.148Z,29.50
2022-09-15T09:15:13.587Z,29.50
2022-09-15T09:17:40.163Z,29.60
2022-09-15T09:20:18.445Z,29.60
2022-09-15T09:22:27.299Z,29.60
2022-09-15T09:24:45.944Z,29.60
2022-09-15T09:26:51.463Z,29.70
2022-09-15T09:29:07.740Z,29.60
2022-09-15T09:31:22.302Z,29.60
2022-09-15T09:33:58.295Z,29.60
2022-09-15T09:36:04.781Z,29.50
2022-09-15T09:38:12.803Z,29.50
2022-09-15T09:40:19.392Z,29.50
2022-09-15T09:42:27.990Z,29.50
2022-09-15T09:44:35.315Z,29.60
2022-09-15T09:46:42.764Z,29.60
2022-09-15T09:49:17.781Z,29.60
2022-09-15T09:51:37.237Z,29.60
2022-09-15T09:53:45.515Z,29.60
2022-09-15T09:55:57.113Z,29.60
2022-09-15T09:58:16.588Z,29.70
2022-09-15T10:00:39.171Z,29.60
2022-09-15T10:02:48.691Z,29.60
2022-09-15T10:05:18.239Z,29.60
2022-09-15T10:07:28.129Z,29.60
2022-09-15T10:09:35.082Z,29.60
2022-09-15T10:11:53.811Z,29.60
2022-09-15T10:13:58.270Z,29.60
2022-09-15T10:16:06.701Z,29.60
2022-09-15T10:18:29.589Z,29.60
2022-09-15T10:20:53.670Z,29.60
2022-09-15T10:23:08.228Z,29.60
2022-09-15T10:25:55.053Z,29.50
2022-09-15T10:28:20.485Z,29.50
2022-09-15T10:30:25.461Z,29.30
2022-09-15T10:32:31.981Z,29.30
2022-09-15T10:35:21.720Z,29.30
2022-09-15T10:37:52.807Z,29.30
2022-09-15T10:40:12.441Z,29.30
2022-09-15T10:42:49.129Z,29.30
2022-09-15T10:45:13.983Z,29.30
2022-09-15T10:47:49.719Z,29.30
2022-09-15T10:50:19.839Z,29.30
2022-09-15T10:52:58.474Z,29.20
2022-09-15T10:55:42.225Z,29.20
2022-09-15T10:58:22.269Z,29.20
2022-09-15T11:00:30.542Z,29.20
2022-09-15T11:03:00.902Z,29.20
2022-09-15T11:05:28.212Z,29.10
2022-09-15T11:08:04.749Z,29.10
2022-09-15T11:10:34.061Z,29.10
2022-09-15T11:12:51.319Z,29.10
2022-09-15T11:15:29.431Z,29.00
2022-09-15T11:18:10.013Z,29.00
2022-09-15T11:20:42.545Z,29.00
2022-09-15T11:23:00.519Z,29.00
2022-09-15T11:25:14.067Z,29.00
2022-09-15T11:27:40.454Z,28.90
2022-09-15T11:30:09.753Z,28.90
2022-09-15T11:32:20.244Z,28.90
2022-09-15T11:34:52.313Z,28.90
2022-09-15T11:37:21.650Z,28.90
2022-09-15T11:39:30.035Z,29.00
2022-09-15T11:42:04.091Z,29.00
2022-09-15T11:44:28.030Z,28.90
2022-09-15T11:47:01.087Z,28.90
2022-09-15T11:49:15.401Z,28.90
2022-09-15T11:51:20.566Z,28.90
2022-09-15T11:53:42.247Z,28.90
2022-09-15T11:56:09.228Z,28.90
2022-09-15T11:58:52.768Z,28.90
2022-09-15T12:01:09.859Z,28.90
2022-09-15T12:03:37.260Z,28.90
2022-09-15T12:05:44.453Z,28.80
2022-09-15T12:07:58.961Z,28.80
2022-09-15T12:10:19.436Z,28.90
2022-09-15T12:12:28.031Z,28.90
2022-09-15T12:14:48.131Z,28.80
2022-09-15T12:16:52.824Z,28.80
2022-09-15T12:19:19.569Z,28.80
2022-09-15T12:21:49.306Z,28.80
2022-09-15T12:24:18.454Z,28.70
2022-09-15T12:26:27.326Z,28.80
2022-09-15T12:29:04.026Z,28.80
2022-09-15T12:31:39.309Z,28.80
2022-09-15T12:33:55.741Z,28.80
2022-09-15T12:36:22.099Z,28.80
2022-09-15T12:38:33.359Z,28.80
2022-09-15T12:40:41.495Z,28.80
2022-09-15T12:42:46.373Z,28.70
2022-09-15T12:45:21.338Z,28.80
2022-09-15T12:47:41.645Z,28.70
2022-09-15T12:49:51.863Z,28.70
2022-09-15T12:51:59.809Z,28.70
2022-09-15T12:54:05.723Z,28.70
2022-09-15T12:56:12.640Z,28.60
2022-09-15T12:58:31.390Z,28.70
2022-09-15T13:00:54.835Z,28.60
2022-09-15T13:03:06.630Z,28.60
2022-09-15T13:05:15.827Z,28.60
2022-09-15T13:07:32.254Z,28.60
2022-09-15T13:09:45.481Z,28.60
2022-09-15T13:11:51.271Z,28.60
2022-09-15T13:14:16.516Z,28.60
2022-09-15T13:16:47.948Z,28.60
2022-09-15T13:19:06.930Z,28.60
2022-09-15T13:21:14.036Z,28.60
2022-09-15T13:23:20.307Z,28.60
2022-09-15T13:25:32.593Z,28.60
2022-09-15T13:27:38.945Z,28.60
2022-09-15T13:29:54.566Z,28.60
2022-09-15T13:32:32.887Z,28.60
2022-09-15T13:35:08.026Z,28.50
2022-09-15T13:40:47.748Z,28.50
2022-09-15T13:43:18.811Z,28.50
2022-09-15T13:45:46.047Z,28.50
2022-09-15T13:48:06.613Z,28.50
2022-09-15T13:50:40.521Z,28.50
2022-09-15T13:53:37.237Z,28.40
2022-09-15T13:55:43.316Z,28.40
2022-09-15T14:00:32.471Z,28.40
2022-09-15T14:02:38.973Z,28.40
2022-09-15T14:04:43.374Z,28.50
2022-09-15T14:06:55.921Z,28.40
2022-09-15T14:09:07.719Z,28.40
2022-09-15T14:11:14.939Z,28.40
2022-09-15T14:13:20.611Z,28.40
2022-09-15T14:15:25.952Z,28.40
2022-09-15T14:17:31.034Z,28.40
2022-09-15T14:19:39.229Z,28.40
2022-09-15T14:21:56.238Z,28.40
2022-09-15T14:24:07.662Z,28.40
2022-09-15T14:26:14.316Z,28.30
2022-09-15T14:28:31.678Z,28.40
2022-09-15T14:30:36.103Z,28.40
2022-09-15T14:32:45.042Z,28.30
2022-09-15T14:34:50.384Z,28.40
2022-09-15T14:37:04.661Z,28.30
2022-09-15T14:39:24.925Z,28.30
2022-09-15T14:41:30.504Z,28.30
2022-09-15T14:43:41.550Z,28.30
2022-09-15T14:45:57.161Z,28.30
2022-09-15T14:48:10.693Z,28.30
2022-09-15T14:50:22.235Z,28.30
2022-09-15T14:52:30.541Z,28.30
2022-09-15T14:54:38.394Z,28.30
2022-09-15T14:56:46.443Z,28.30
2022-09-15T14:58:58.017Z,28.30
2022-09-15T15:01:29.145Z,28.30
2022-09-15T15:03:55.785Z,28.30
2022-09-15T15:06:36.746Z,28.30
2022-09-15T15:09:22.207Z,28.20
2022-09-15T15:11:29.269Z,28.20
2022-09-15T15:13:35.564Z,28.30
2022-09-15T15:15:40.251Z,28.20
2022-09-15T15:17:55.427Z,28.20
2022-09-15T15:20:23.801Z,28.20
2022-09-15T15:22:28.262Z,28.20
2022-09-15T15:24:32.955Z,28.20
2022-09-15T15:26:40.978Z,28.00
2022-09-15T15:28:45.748Z,28.00
2022-09-15T15:30:51.896Z,27.90
2022-09-15T15:33:00.571Z,28.00
2022-09-15T15:35:04.943Z,28.00
2022-09-15T15:37:37.172Z,28.10
2022-09-15T15:39:45.555Z,28.10
2022-09-15T15:41:49.830Z,28.10
2022-09-15T15:44:04.227Z,28.10
2022-09-15T15:46:11.188Z,28.00
2022-09-15T15:48:16.223Z,27.80
2022-09-15T15:50:23.167Z,27.70
2022-09-15T15:52:29.662Z,27.70
2022-09-15T15:54:34.783Z,27.80
2022-09-15T15:56:41.073Z,27.90
2022-09-15T15:58:47.308Z,27.90
2022-09-15T16:00:55.677Z,28.00
2022-09-15T16:03:06.323Z,28.00
2022-09-15T16:05:17.878Z,28.00
2022-09-15T16:07:22.805Z,28.00
2022-09-15T16:09:29.073Z,28.00
2022-09-15T16:11:35.348Z,28.00
2022-09-15T16:13:39.768Z,27.90
2022-09-15T16:15:46.522Z,27.90
2022-09-15T16:17:53.051Z,28.00
2022-09-15T16:19:57.646Z,28.00
2022-09-15T16:22:04.111Z,28.10
2022-09-15T16:24:12.531Z,28.10
2022-09-15T16:26:19.248Z,28.10
2022-09-15T16:28:27.252Z,28.00
2022-09-15T16:30:34.393Z,28.00
2022-09-15T16:32:38.841Z,28.00
2022-09-15T16:34:45.542Z,28.00
2022-09-15T16:36:51.950Z,28.00
2022-09-15T16:38:57.105Z,27.90
2022-09-15T16:41:03.604Z,27.90
2022-09-15T16:43:13.934Z,27.90
2022-09-15T16:45:39.973Z,27.90
2022-09-15T16:47:47.385Z,27.90
2022-09-15T16:49:55.224Z,27.90
2022-09-15T16:51:59.768Z,27.90
2022-09-15T16:54:10.376Z,27.90
2022-09-15T16:56:15.939Z,27.90
2022-09-15T16:58:20.986Z,27.90
2022-09-15T17:00:27.990Z,27.90
2022-09-15T17:02:32.578Z,27.90
2022-09-15T17:04:40.215Z,27.90
2022-09-15T17:06:48.364Z,27.90
2022-09-15T17:08:54.849Z,27.90
2022-09-15T17:11:03.575Z,27.90
2022-09-15T17:13:10.517Z,27.90
2022-09-15T17:15:39.550Z,27.90
2022-09-15T17:17:44.409Z,27.90
2022-09-15T17:19:51.077Z,27.90
2022-09-15T17:21:56.707Z,27.90
2022-09-15T17:24:00.849Z,27.80
2022-09-15T17:26:08.435Z,27.80
2022-09-15T17:28:13.744Z,27.80
2022-09-15T17:30:18.892Z,27.80
2022-09-15T17:32:23.136Z,27.80
2022-09-15T17:34:27.951Z,27.80
2022-09-15T17:36:32.258Z,27.80
2022-09-15T17:38:38.751Z,27.80
2022-09-15T17:40:45.310Z,27.80
2022-09-15T17:42:50.027Z,27.80
2022-09-15T17:44:56.319Z,27.80
2022-09-15T17:47:03.287Z,27.70
2022-09-15T17:49:09.661Z,27.80
2022-09-15T17:51:18.071Z,27.80
2022-09-15T17:53:26.735Z,27.80
2022-09-15T17:55:32.837Z,27.70
2022-09-15T17:57:39.282Z,27.70
2022-09-15T17:59:45.934Z,27.70
2022-09-15T18:01:50.604Z,27.70
2022-09-15T18:03:57.940Z,27.60
2022-09-15T18:06:09.775Z,27.60
2022-09-15T18:08:17.961Z,27.60
2022-09-15T18:10:22.665Z,27.60
2022-09-15T18:12:32.935Z,27.50
2022-09-15T18:14:40.484Z,27.60
2022-09-15T18:17:03.148Z,27.60
2022-09-15T18:19:11.669Z,27.50
2022-09-15T18:21:29.479Z,27.50
2022-09-15T18:23:39.130Z,27.50
2022-09-15T18:25:45.775Z,27.50
2022-09-15T18:27:53.023Z,27.50
2022-09-15T18:30:12.721Z,27.50
2022-09-15T18:32:20.141Z,27.60
2022-09-15T18:34:26.800Z,27.60
2022-09-15T18:36:34.918Z,27.50
2022-09-15T18:38:42.272Z,27.50
2022-09-15T18:40:56.188Z,27.50
2022-09-15T18:43:03.428Z,27.50
2022-09-15T18:45:12.356Z,27.50
2022-09-15T18:47:16.727Z,27.50
2022-09-15T18:49:23.315Z,27.50
2022-09-15T18:51:50.436Z,27.50
2022-09-15T18:53:54.642Z,27.50
2022-09-15T18:56:01.159Z,27.60
2022-09-15T18:58:06.884Z,27.60
2022-09-15T19:00:32.765Z,27.50
2022-09-15T19:02:39.006Z,27.50
2022-09-15T19:04:46.406Z,27.60
2022-09-15T19:06:50.585Z,27.50
2022-09-15T19:09:00.208Z,27.50
2022-09-15T19:11:05.281Z,27.50
2022-09-15T19:13:12.245Z,27.50
2022-09-15T19:15:23.568Z,27.50
2022-09-15T19:17:31.696Z,27.50
2022-09-15T19:19:36.338Z,27.50
2022-09-15T19:21:43.009Z,27.50
2022-09-15T19:23:49.650Z,27.50
2022-09-15T19:26:14.443Z,27.50
2022-09-15T19:28:25.965Z,27.50
2022-09-15T19:30:31.909Z,27.50
2022-09-15T19:32:36.548Z,27.50
2022-09-15T19:34:45.957Z,27.50
2022-09-15T19:36:52.452Z,27.50
2022-09-15T19:38:57.026Z,27.50
2022-09-15T19:41:12.167Z,27.50
2022-09-15T19:43:18.614Z,27.40
2022-09-15T19:45:22.789Z,27.50
2022-09-15T19:47:29.297Z,27.50
2022-09-15T19:49:35.727Z,27.50
2022-09-15T19:51:39.930Z,27.40
2022-09-15T19:53:46.160Z,27.40
2022-09-15T19:55:54.149Z,27.40
2022-09-15T19:57:58.274Z,27.40
2022-09-15T20:00:05.931Z,27.40
2022-09-15T20:02:11.135Z,27.40
2022-09-15T20:09:02.606Z,27.40
2022-09-15T20:11:07.634Z,27.30
2022-09-15T20:13:24.388Z,27.20
2022-09-15T20:15:33.055Z,27.20
2022-09-15T20:17:42.512Z,27.10
2022-09-15T20:19:49.275Z,27.10
2022-09-15T20:21:57.263Z,27.20
2022-09-15T20:24:02.903Z,27.10
2022-09-15T20:26:12.189Z,27.10
2022-09-15T20:28:26.518Z,27.10
2022-09-15T20:30:31.771Z,27.10
2022-09-15T20:32:41.442Z,27.00
2022-09-15T20:34:47.938Z,26.90
2022-09-15T20:36:55.176Z,26.90
2022-09-15T20:39:06.742Z,26.90
2022-09-15T20:41:13.686Z,26.90
2022-09-15T20:43:38.984Z,26.90
2022-09-15T20:45:55.031Z,26.90
2022-09-15T20:48:02.385Z,26.90
2022-09-15T20:50:09.456Z,26.90
2022-09-15T20:52:16.579Z,26.90
2022-09-15T20:54:24.751Z,26.90
2022-09-15T20:56:31.075Z,26.90
2022-09-15T20:58:38.277Z,26.90
2022-09-15T21:00:50.267Z,26.90
2022-09-15T21:03:12.728Z,26.90
2022-09-15T21:05:22.624Z,26.90
2022-09-15T21:07:32.297Z,26.90
2022-09-15T21:09:36.897Z,27.00
2022-09-15T21:11:44.416Z,27.00
2022-09-15T21:13:51.237Z,27.00
2022-09-15T21:16:00.183Z,27.00
2022-09-15T21:18:06.342Z,27.10
2022-09-15T21:20:13.296Z,27.00
2022-09-15T21:22:17.434Z,27.00
2022-09-15T21:24:24.077Z,27.00
2022-09-15T21:26:37.591Z,27.10
2022-09-15T21:28:44.391Z,27.00
2022-09-15T21:30:51.599Z,27.10
2022-09-15T21:32:58.247Z,27.10
2022-09-15T21:35:02.578Z,27.10
2022-09-15T21:37:08.827Z,27.10
2022-09-15T21:39:17.083Z,27.10
2022-09-15T21:41:22.909Z,27.10
2022-09-15T21:43:31.486Z,27.10
2022-09-15T21:45:40.240Z,27.10
2022-09-15T21:47:44.490Z,27.10
2022-09-15T21:49:48.734Z,27.10
2022-09-15T21:51:55.294Z,27.10
2022-09-15T21:54:00.235Z,27.10
2022-09-15T21:56:09.408Z,27.10
2022-09-15T21:58:15.582Z,27.10
2022-09-15T22:00:19.987Z,27.10
2022-09-15T22:02:24.678Z,27.10
2022-09-15T22:04:32.956Z,27.10
2022-09-15T22:06:41.217Z,27.20
2022-09-15T22:08:45.655Z,27.10
2022-09-15T22:10:54.207Z,27.10
2022-09-15T22:12:58.990Z,27.10
2022-09-15T22:15:03.466Z,27.10
2022-09-15T22:17:11.683Z,27.10
2022-09-15T22:19:16.007Z,27.10
2022-09-15T22:21:28.535Z,27.10
2022-09-15T22:23:37.396Z,27.10
2022-09-15T22:25:42.397Z,27.10
2022-09-15T22:27:48.874Z,27.10
2022-09-15T22:29:57.652Z,27.20
2022-09-15T22:32:01.950Z,27.20
2022-09-15T22:34:06.411Z,27.20
2022-09-15T22:36:14.721Z,27.10
2022-09-15T22:38:18.675Z,27.20
2022-09-15T22:40:22.853Z,27.20
2022-09-15T22:42:31.223Z,27.20
2022-09-15T22:44:35.673Z,27.20
2022-09-15T22:46:39.750Z,27.20
2022-09-15T22:48:46.329Z,27.20
2022-09-15T22:50:50.541Z,27.20
2022-09-15T22:52:56.288Z,27.20
2022-09-15T22:55:05.550Z,27.20
2022-09-15T22:57:10.334Z,27.20
2022-09-15T22:59:14.613Z,27.20
2022-09-15T23:01:25.979Z,27.20
2022-09-15T23:03:30.592Z,27.20
2022-09-15T23:05:35.436Z,27.20
2022-09-15T23:07:44.928Z,27.20
2022-09-15T23:09:49.503Z,27.20
2022-09-15T23:11:53.735Z,27.20
2022-09-15T23:14:00.355Z,27.20
2022-09-15T23:16:04.741Z,27.20
2022-09-15T23:18:09.195Z,27.20
2022-09-15T23:20:13.858Z,27.20
2022-09-15T23:22:24.938Z,27.20
2022-09-15T23:24:31.555Z,27.20
2022-09-15T23:26:39.477Z,27.30
2022-09-15T23:28:45.919Z,27.30
2022-09-15T23:30:57.444Z,27.30
2022-09-15T23:33:05.882Z,27.30
2022-09-15T23:35:11.548Z,27.30
2022-09-15T23:37:15.752Z,27.30
2022-09-15T23:39:20.226Z,27.40
2022-09-15T23:41:25.590Z,27.40
2022-09-15T23:43:31.200Z,27.40
2022-09-15T23:45:36.246Z,27.40
2022-09-15T23:47:45.238Z,27.40
2022-09-15T23:50:09.675Z,27.40
2022-09-15T23:52:34.959Z,27.40
2022-09-15T23:54:41.556Z,27.50
2022-09-15T23:56:46.606Z,27.50
2022-09-15T23:58:51.219Z,27.50
